createdAt,value
2018-11-12T00:00:16.122Z,13.37
2018-11-12T00:02:46.341Z,12.73
2018-11-12T00:05:13.765Z,12.90
2018-11-12T00:07:41.130Z,12.98
2018-11-12T00:10:10.439Z,13.17
2018-11-12T00:12:41.271Z,13.03
2018-11-12T00:15:10.835Z,13.93
2018-11-12T00:17:41.348Z,13.83
2018-11-12T00:20:11.620Z,14.57
2018-11-12T00:22:40.378Z,14.00
2018-11-12T00:25:09.671Z,13.98
2018-11-12T00:27:39.805Z,13.30
2018-11-12T00:30:13.375Z,13.87
2018-11-12T00:32:42.775Z,14.07
2018-11-12T00:37:46.221Z,13.10
2018-11-12T00:40:14.522Z,13.08
2018-11-12T00:42:42.582Z,13.50
2018-11-12T00:45:11.349Z,12.45
2018-11-12T00:47:40.106Z,11.90
2018-11-12T00:50:09.425Z,13.00
2018-11-12T00:52:39.382Z,12.47
2018-11-12T00:55:09.091Z,12.80
2018-11-12T00:57:36.674Z,12.53
2018-11-12T01:00:05.194Z,13.10
2018-11-12T01:02:35.421Z,12.47
2018-11-12T01:05:02.961Z,12.70
2018-11-12T01:07:31.854Z,12.87
2018-11-12T01:10:01.992Z,12.70
2018-11-12T01:12:30.748Z,13.85
2018-11-12T01:14:59.299Z,13.20
2018-11-12T01:17:28.012Z,13.38
2018-11-12T01:19:55.120Z,14.05
2018-11-12T01:22:25.811Z,12.87
2018-11-12T01:24:55.783Z,14.37
2018-11-12T01:27:25.203Z,13.60
2018-11-12T01:29:52.971Z,13.00
2018-11-12T01:32:21.315Z,13.60
2018-11-12T01:34:48.450Z,14.40
2018-11-12T01:37:17.209Z,12.73
2018-11-12T01:39:44.302Z,13.87
2018-11-12T01:42:13.521Z,14.28
2018-11-12T01:44:43.397Z,14.70
2018-11-12T01:47:10.560Z,13.40
2018-11-12T01:49:41.780Z,15.00
2018-11-12T01:52:09.690Z,14.47
2018-11-12T01:54:37.384Z,14.03
2018-11-12T01:57:04.581Z,13.88
2018-11-12T01:59:37.265Z,13.63
2018-11-12T02:02:07.354Z,13.93
2018-11-12T02:04:34.880Z,14.37
2018-11-12T02:07:03.071Z,15.07
2018-11-12T02:09:32.184Z,14.33
2018-11-12T02:12:00.054Z,14.47
2018-11-12T02:14:28.392Z,15.37
2018-11-12T02:16:55.813Z,14.63
2018-11-12T02:19:23.002Z,14.53
2018-11-12T02:21:52.362Z,14.53
2018-11-12T02:24:20.320Z,15.30
2018-11-12T02:26:47.427Z,15.33
2018-11-12T02:29:15.219Z,15.80
2018-11-12T02:31:43.968Z,15.43
2018-11-12T02:34:11.194Z,16.60
2018-11-12T02:36:38.271Z,16.07
2018-11-12T02:39:08.465Z,16.13
2018-11-12T02:41:35.564Z,15.87
2018-11-12T02:44:06.230Z,16.73
2018-11-12T02:46:35.674Z,16.23
2018-11-12T02:49:03.918Z,14.45
2018-11-12T02:51:33.358Z,15.43
2018-11-12T02:54:00.632Z,16.02
2018-11-12T02:56:31.521Z,15.50
2018-11-12T02:58:59.656Z,14.90
2018-11-12T03:01:26.794Z,15.48
2018-11-12T03:03:54.087Z,15.37
2018-11-12T03:06:21.401Z,14.90
2018-11-12T03:08:48.923Z,13.80
2018-11-12T03:11:16.077Z,14.87
2018-11-12T03:13:43.478Z,15.40
2018-11-12T03:16:10.940Z,14.47
2018-11-12T03:18:40.839Z,15.20
2018-11-12T03:21:09.031Z,15.43
2018-11-12T03:23:37.489Z,13.73
2018-11-12T03:26:05.775Z,13.43
2018-11-12T03:28:33.594Z,13.17
2018-11-12T03:31:01.528Z,14.23
2018-11-12T03:33:29.220Z,13.95
2018-11-12T03:35:56.614Z,13.23
2018-11-12T03:38:25.272Z,12.87
2018-11-12T03:40:53.188Z,14.13
2018-11-12T03:43:22.527Z,13.40
2018-11-12T03:45:50.502Z,13.00
2018-11-12T03:48:18.587Z,14.13
2018-11-12T03:50:47.224Z,14.27
2018-11-12T03:53:18.819Z,13.70
2018-11-12T03:55:46.624Z,13.90
2018-11-12T03:58:13.786Z,14.20
2018-11-12T04:00:41.021Z,12.60
2018-11-12T04:03:08.952Z,14.83
2018-11-12T04:05:36.773Z,13.00
2018-11-12T04:08:04.487Z,14.03
2018-11-12T04:10:33.071Z,13.13
2018-11-12T04:13:02.165Z,13.23
2018-11-12T04:15:30.268Z,12.97
2018-11-12T04:17:58.471Z,12.43
2018-11-12T04:20:27.126Z,13.30
2018-11-12T04:23:02.650Z,12.53
2018-11-12T04:25:30.839Z,11.33
2018-11-12T04:27:58.033Z,11.97
2018-11-12T04:30:25.890Z,12.60
2018-11-12T04:32:54.036Z,11.60
2018-11-12T04:35:21.180Z,11.80
2018-11-12T04:37:50.717Z,11.93
2018-11-12T04:40:19.070Z,11.95
2018-11-12T04:42:50.251Z,12.63
2018-11-12T04:45:19.511Z,11.43
2018-11-12T04:47:47.408Z,12.07
2018-11-12T04:50:17.131Z,12.00
2018-11-12T04:52:46.372Z,11.47
2018-11-12T04:55:15.684Z,11.87
2018-11-12T04:57:44.463Z,11.13
2018-11-12T05:00:15.578Z,10.77
2018-11-12T05:02:45.695Z,10.97
2018-11-12T05:05:15.917Z,11.43
2018-11-12T05:07:44.992Z,10.03
2018-11-12T05:10:14.153Z,10.72
2018-11-12T05:12:43.361Z,10.53
2018-11-12T05:15:15.879Z,9.87
2018-11-12T05:17:44.621Z,9.33
2018-11-12T05:20:17.063Z,11.23
2018-11-12T05:22:47.618Z,10.00
2018-11-12T05:25:15.912Z,11.23
2018-11-12T05:27:44.858Z,10.23
2018-11-12T05:30:29.650Z,11.12
2018-11-12T05:32:58.706Z,10.53
2018-11-12T05:35:28.424Z,10.78
2018-11-12T05:37:58.804Z,10.43
2018-11-12T05:40:27.681Z,10.23
2018-11-12T05:42:56.254Z,11.13
2018-11-12T05:45:25.790Z,12.00
2018-11-12T05:47:53.656Z,11.20
2018-11-12T05:50:23.074Z,9.53
2018-11-12T05:52:54.290Z,11.70
2018-11-12T05:55:23.084Z,11.57
2018-11-12T05:57:51.790Z,13.72
2018-11-12T06:00:29.948Z,15.17
2018-11-12T06:02:57.162Z,15.40
2018-11-12T06:05:24.322Z,14.73
2018-11-12T06:07:51.562Z,15.38
2018-11-12T06:10:20.045Z,15.23
2018-11-12T06:12:47.528Z,15.03
2018-11-12T06:15:14.981Z,16.07
2018-11-12T06:17:43.448Z,14.23
2018-11-12T06:20:16.808Z,16.47
2018-11-12T06:22:44.296Z,16.43
2018-11-12T06:25:12.681Z,16.57
2018-11-12T06:27:39.819Z,15.83
2018-11-12T06:30:13.264Z,15.97
2018-11-12T06:32:40.446Z,17.80
2018-11-12T06:35:08.940Z,17.20
2018-11-12T06:37:36.383Z,16.67
2018-11-12T06:40:04.695Z,16.13
2018-11-12T06:42:32.191Z,14.68
2018-11-12T06:44:59.272Z,12.82
2018-11-12T06:47:27.175Z,14.70
2018-11-12T06:49:54.551Z,13.45
2018-11-12T06:52:21.943Z,13.85
2018-11-12T06:54:49.146Z,20.17
2018-11-12T06:57:16.367Z,18.17
2018-11-12T06:59:43.577Z,13.87
2018-11-12T07:02:10.798Z,14.10
2018-11-12T07:04:38.709Z,14.13
2018-11-12T07:07:06.175Z,14.00
2018-11-12T07:09:33.458Z,14.10
2018-11-12T07:12:01.268Z,14.80
2018-11-12T07:14:28.394Z,14.53
2018-11-12T07:16:55.616Z,15.95
2018-11-12T07:19:23.107Z,15.10
2018-11-12T07:21:50.338Z,14.57
2018-11-12T07:24:17.545Z,14.63
2018-11-12T07:26:44.772Z,14.73
2018-11-12T07:29:12.019Z,15.80
2018-11-12T07:31:39.336Z,16.53
2018-11-12T07:34:06.579Z,15.90
2018-11-12T07:36:33.748Z,14.60
2018-11-12T07:39:01.222Z,14.83
2018-11-12T07:41:28.536Z,15.00
2018-11-12T07:43:55.857Z,14.60
2018-11-12T07:46:23.027Z,14.78
2018-11-12T07:48:50.377Z,14.20
2018-11-12T07:51:17.686Z,15.23
2018-11-12T07:53:44.894Z,14.43
2018-11-12T07:56:12.167Z,15.08
2018-11-12T07:58:39.359Z,14.50
2018-11-12T08:01:06.630Z,14.53
2018-11-12T08:03:34.042Z,15.00
2018-11-12T08:06:04.758Z,14.35
2018-11-12T08:08:32.151Z,13.18
2018-11-12T08:10:59.959Z,13.90
2018-11-12T08:13:27.109Z,13.48
2018-11-12T08:15:54.436Z,13.98
2018-11-12T08:18:21.994Z,14.33
2018-11-12T08:20:50.193Z,13.83
2018-11-12T08:23:17.514Z,14.90
2018-11-12T08:25:44.689Z,13.45
2018-11-12T08:28:11.839Z,14.30
2018-11-12T08:30:39.145Z,13.18
2018-11-12T08:33:06.806Z,14.90
2018-11-12T08:35:34.288Z,14.53
2018-11-12T08:38:01.534Z,13.78
2018-11-12T08:40:29.417Z,14.65
2018-11-12T08:42:56.468Z,14.53
2018-11-12T08:45:23.728Z,14.00
2018-11-12T08:47:52.229Z,15.43
2018-11-12T08:50:21.116Z,15.70
2018-11-12T08:52:50.437Z,14.53
2018-11-12T08:55:23.776Z,15.10
2018-11-12T08:57:52.740Z,14.53
2018-11-12T09:00:21.139Z,14.73
2018-11-12T09:02:51.738Z,15.00
2018-11-12T09:05:24.093Z,14.20
2018-11-12T09:07:54.016Z,14.33
2018-11-12T09:10:23.726Z,13.38
2018-11-12T09:12:51.534Z,14.03
2018-11-12T09:15:19.264Z,14.77
2018-11-12T09:17:49.570Z,14.28
2018-11-12T09:20:21.622Z,14.03
2018-11-12T09:22:49.357Z,13.95
2018-11-12T09:25:18.545Z,13.83
2018-11-12T09:27:48.063Z,13.08
2018-11-12T09:30:22.260Z,14.05
2018-11-12T09:32:50.233Z,13.65
2018-11-12T09:35:19.613Z,14.20
2018-11-12T09:37:48.493Z,13.72
2018-11-12T09:40:21.277Z,14.35
2018-11-12T09:42:49.481Z,14.43
2018-11-12T09:45:16.658Z,13.78
2018-11-12T09:47:44.203Z,13.48
2018-11-12T09:50:14.080Z,13.75
2018-11-12T09:52:42.700Z,13.75
2018-11-12T09:55:10.624Z,13.70
2018-11-12T09:57:39.805Z,13.28
2018-11-12T10:00:09.750Z,11.88
2018-11-12T10:02:38.277Z,11.95
2018-11-12T10:05:07.150Z,11.30
2018-11-12T10:07:34.434Z,11.83
2018-11-12T10:10:01.472Z,10.98
2018-11-12T10:12:29.177Z,10.28
2018-11-12T10:14:56.643Z,10.90
2018-11-12T10:17:25.410Z,10.48
2018-11-12T10:19:56.652Z,10.88
2018-11-12T10:22:23.812Z,12.03
2018-11-12T10:24:51.064Z,11.65
2018-11-12T10:27:19.257Z,12.35
2018-11-12T10:29:46.908Z,11.93
2018-11-12T10:32:14.055Z,12.20
2018-11-12T10:34:41.745Z,12.33
2018-11-12T10:37:08.866Z,12.00
2018-11-12T10:39:35.963Z,13.50
2018-11-12T10:42:03.278Z,12.23
2018-11-12T10:44:30.425Z,12.95
2018-11-12T10:46:59.991Z,12.95
2018-11-12T10:49:27.123Z,13.30
2018-11-12T10:51:56.238Z,12.68
2018-11-12T10:54:23.967Z,13.20
2018-11-12T10:56:50.908Z,12.55
2018-11-12T10:59:18.019Z,13.25
2018-11-12T11:01:50.941Z,12.95
2018-11-12T11:04:20.297Z,12.88
2018-11-12T11:06:47.614Z,12.73
2018-11-12T11:09:14.728Z,12.25
2018-11-12T11:11:41.886Z,11.63
2018-11-12T11:14:09.004Z,12.80
2018-11-12T11:16:37.087Z,13.05
2018-11-12T11:19:04.636Z,12.63
2018-11-12T11:21:32.484Z,11.78
2018-11-12T11:23:59.659Z,12.60
2018-11-12T11:26:27.304Z,12.75
2018-11-12T11:28:54.762Z,11.68
2018-11-12T11:31:21.946Z,11.88
2018-11-12T11:33:49.041Z,12.43
2018-11-12T11:36:16.163Z,13.32
2018-11-12T11:38:43.294Z,12.50
2018-11-12T11:41:10.420Z,13.25
2018-11-12T11:43:37.547Z,12.78
2018-11-12T11:46:05.349Z,12.82
2018-11-12T11:48:32.527Z,12.55
2018-11-12T11:50:59.890Z,14.07
2018-11-12T11:53:27.003Z,12.55
2018-11-12T11:55:54.160Z,13.13
2018-11-12T11:58:21.804Z,12.10
2018-11-12T12:00:48.903Z,12.05
2018-11-12T12:03:16.508Z,13.43
2018-11-12T12:05:43.639Z,14.28
2018-11-12T12:08:10.742Z,13.75
2018-11-12T12:10:37.849Z,12.93
2018-11-12T12:13:04.974Z,14.03
2018-11-12T12:15:32.135Z,12.28
2018-11-12T12:17:59.250Z,13.80
2018-11-12T12:20:26.854Z,13.78
2018-11-12T12:23:56.994Z,13.55
2018-11-12T12:26:24.143Z,14.23
2018-11-12T12:28:51.268Z,13.03
2018-11-12T12:31:18.364Z,12.73
2018-11-12T12:33:46.383Z,12.80
2018-11-12T12:36:13.557Z,12.75
2018-11-12T12:38:41.357Z,12.50
2018-11-12T12:41:08.425Z,12.30
2018-11-12T12:43:35.753Z,14.20
2018-11-12T12:46:02.954Z,16.90
2018-11-12T12:48:30.691Z,13.75
2018-11-12T12:50:57.943Z,11.93
2018-11-12T12:53:26.416Z,12.73
2018-11-12T12:55:53.731Z,13.05
2018-11-12T12:58:20.802Z,13.55
2018-11-12T13:00:47.851Z,13.43
2018-11-12T13:03:15.412Z,15.65
2018-11-12T13:05:42.535Z,14.73
2018-11-12T13:08:09.621Z,13.30
2018-11-12T13:10:36.771Z,15.13
2018-11-12T13:13:03.978Z,14.00
2018-11-12T13:15:31.152Z,15.28
2018-11-12T13:17:58.305Z,14.65
2018-11-12T13:20:25.499Z,13.28
2018-11-12T13:22:52.687Z,14.83
2018-11-12T13:25:20.054Z,12.50
2018-11-12T13:27:53.834Z,13.60
2018-11-12T13:30:22.175Z,14.13
2018-11-12T13:32:49.435Z,14.55
2018-11-12T13:35:19.835Z,14.25
2018-11-12T13:37:46.944Z,13.30
2018-11-12T13:40:18.595Z,14.10
2018-11-12T13:42:47.507Z,13.43
2018-11-12T13:45:14.677Z,13.85
2018-11-12T13:47:43.050Z,13.70
2018-11-12T13:50:16.811Z,13.32
2018-11-12T13:52:44.036Z,12.93
2018-11-12T13:55:13.264Z,13.75
2018-11-12T13:57:40.433Z,12.47
2018-11-12T14:00:09.319Z,12.93
2018-11-12T14:02:36.529Z,12.82
2018-11-12T14:05:04.919Z,12.23
2018-11-12T14:07:32.629Z,11.95
2018-11-12T14:09:59.783Z,12.53
2018-11-12T14:12:26.887Z,12.35
2018-11-12T14:14:54.245Z,11.48
2018-11-12T14:17:21.366Z,11.63
2018-11-12T14:19:48.453Z,13.62
2018-11-12T14:22:15.581Z,13.60
2018-11-12T14:24:42.740Z,22.70
2018-11-12T14:27:10.209Z,19.73
2018-11-12T14:29:37.347Z,14.90
2018-11-12T14:32:04.894Z,16.45
2018-11-12T14:34:31.981Z,15.98
2018-11-12T14:36:59.108Z,14.18
2018-11-12T14:39:26.300Z,14.75
2018-11-12T14:41:53.398Z,15.20
2018-11-12T14:44:20.507Z,12.82
2018-11-12T14:46:48.196Z,13.00
2018-11-12T14:49:15.338Z,12.70
2018-11-12T14:51:42.453Z,13.13
2018-11-12T14:54:09.596Z,12.45
2018-11-12T14:56:36.697Z,12.82
2018-11-12T14:59:04.019Z,13.32
2018-11-12T15:01:31.161Z,13.20
2018-11-12T15:03:58.285Z,13.70
2018-11-12T15:06:25.424Z,13.10
2018-11-12T15:08:53.748Z,11.65
2018-11-12T15:11:21.012Z,14.03
2018-11-12T15:13:48.639Z,14.58
2018-11-12T15:16:15.719Z,14.68
2018-11-12T15:18:42.814Z,14.87
2018-11-12T15:21:10.030Z,13.15
2018-11-12T15:23:37.027Z,14.00
2018-11-12T15:26:04.774Z,14.70
2018-11-12T15:28:31.886Z,17.32
2018-11-12T15:30:59.161Z,15.65
2018-11-12T15:33:26.254Z,15.85
2018-11-12T15:35:54.009Z,15.88
2018-11-12T15:38:21.228Z,16.00
2018-11-12T15:40:49.081Z,14.98
2018-11-12T15:43:16.535Z,15.00
2018-11-12T15:45:43.736Z,14.90
2018-11-12T15:48:11.403Z,16.10
2018-11-12T15:50:39.388Z,15.15
2018-11-12T15:53:06.682Z,15.70
2018-11-12T15:55:33.937Z,13.75
2018-11-12T15:58:01.237Z,16.02
2018-11-12T16:00:28.506Z,16.57
2018-11-12T16:02:56.110Z,13.90
2018-11-12T16:05:24.099Z,14.07
2018-11-12T16:07:51.331Z,13.95
2018-11-12T16:10:21.200Z,14.58
2018-11-12T16:12:50.094Z,14.90
2018-11-12T16:15:18.429Z,13.85
2018-11-12T16:17:47.515Z,14.10
2018-11-12T16:20:17.201Z,14.20
2018-11-12T16:22:45.788Z,13.40
2018-11-12T16:30:29.991Z,15.70
2018-11-12T16:32:57.551Z,18.30
2018-11-12T16:35:25.102Z,12.82
2018-11-12T16:37:53.249Z,13.10
2018-11-12T16:40:21.259Z,14.00
2018-11-12T16:42:49.829Z,13.50
2018-11-12T16:45:17.619Z,13.55
2018-11-12T16:47:45.221Z,13.00
2018-11-12T16:50:13.361Z,13.15
2018-11-12T16:52:41.452Z,13.68
2018-11-12T16:55:13.253Z,12.63
2018-11-12T16:57:41.407Z,12.93
2018-11-12T17:00:10.423Z,12.65
2018-11-12T17:02:39.479Z,12.45
2018-11-12T17:05:07.798Z,12.55
2018-11-12T17:07:36.708Z,12.35
2018-11-12T17:10:07.839Z,12.28
2018-11-12T17:12:40.223Z,12.00
2018-11-12T17:15:08.649Z,12.30
2018-11-12T17:17:38.780Z,11.60
2018-11-12T17:20:08.059Z,11.97
2018-11-12T17:22:37.127Z,11.73
2018-11-12T17:25:11.553Z,12.30
2018-11-12T17:27:43.447Z,11.95
2018-11-12T17:30:13.745Z,11.65
2018-11-12T17:32:42.042Z,11.20
2018-11-12T17:35:12.297Z,11.22
2018-11-12T17:37:43.207Z,11.83
2018-11-12T17:40:20.152Z,14.45
2018-11-12T17:42:49.654Z,15.20
2018-11-12T17:45:19.140Z,11.88
2018-11-12T17:47:52.988Z,11.38
2018-11-12T17:50:23.551Z,10.98
2018-11-12T17:52:51.381Z,11.08
2018-11-12T17:55:21.343Z,11.00
2018-11-12T18:00:31.413Z,11.03
2018-11-12T18:02:58.629Z,11.08
2018-11-12T18:05:25.893Z,10.72
2018-11-12T18:07:53.347Z,11.97
2018-11-12T18:10:20.385Z,11.85
2018-11-12T18:12:48.012Z,13.18
2018-11-12T18:15:19.052Z,12.88
2018-11-12T18:17:49.541Z,12.00
2018-11-12T18:20:23.942Z,11.57
2018-11-12T18:22:52.453Z,11.88
2018-11-12T18:25:20.368Z,12.68
2018-11-12T18:27:47.908Z,12.10
2018-11-12T18:30:17.739Z,12.73
2018-11-12T18:32:48.779Z,12.18
2018-11-12T18:35:17.631Z,12.80
2018-11-12T18:37:45.374Z,14.00
2018-11-12T18:40:13.966Z,13.23
2018-11-12T18:42:41.601Z,17.07
2018-11-12T18:45:12.049Z,12.93
2018-11-12T18:47:40.237Z,12.05
2018-11-12T18:50:10.104Z,12.78
2018-11-12T18:52:38.944Z,12.15
2018-11-12T18:55:07.130Z,11.75
2018-11-12T18:57:34.680Z,12.93
2018-11-12T19:00:04.078Z,11.63
2018-11-12T19:02:31.942Z,13.20
2018-11-12T19:04:59.363Z,12.80
2018-11-12T19:07:26.760Z,13.22
2018-11-12T19:09:53.960Z,14.07
2018-11-12T19:12:21.801Z,12.82
2018-11-12T19:14:50.702Z,13.08
2018-11-12T19:17:18.200Z,13.55
2018-11-12T19:19:45.644Z,12.58
2018-11-12T19:22:13.216Z,13.32
2018-11-12T19:24:42.159Z,15.03
2018-11-12T19:27:09.960Z,13.40
2018-11-12T19:29:39.288Z,14.03
2018-11-12T19:32:07.161Z,14.18
2018-11-12T19:34:34.547Z,13.90
2018-11-12T19:37:02.032Z,14.13
2018-11-12T19:39:30.655Z,14.13
2018-11-12T19:41:58.603Z,13.95
2018-11-12T19:44:25.957Z,21.25
2018-11-12T19:46:53.509Z,14.93
2018-11-12T19:49:21.004Z,13.03
2018-11-12T19:51:49.394Z,14.00
2018-11-12T19:54:17.245Z,14.45
2018-11-12T19:56:44.858Z,13.58
2018-11-12T19:59:12.509Z,13.75
2018-11-12T20:01:39.898Z,14.65
2018-11-12T20:04:08.863Z,13.88
2018-11-12T20:06:39.667Z,13.58
2018-11-12T20:09:08.593Z,13.65
2018-11-12T20:11:35.758Z,13.05
2018-11-12T20:14:04.505Z,13.75
2018-11-12T20:16:32.036Z,13.67
2018-11-12T20:18:59.387Z,14.15
2018-11-12T20:21:27.118Z,13.83
2018-11-12T20:23:55.221Z,14.43
2018-11-12T20:26:22.532Z,14.45
2018-11-12T20:28:49.696Z,13.95
2018-11-12T20:31:19.020Z,13.57
2018-11-12T20:33:48.508Z,13.62
2018-11-12T20:36:16.588Z,13.28
2018-11-12T20:38:44.047Z,13.67
2018-11-12T20:41:11.149Z,13.98
2018-11-12T20:43:38.600Z,15.00
2018-11-12T20:46:05.761Z,13.28
2018-11-12T20:48:32.956Z,13.53
2018-11-12T20:51:00.394Z,14.07
2018-11-12T20:53:27.915Z,13.38
2018-11-12T20:55:55.297Z,14.58
2018-11-12T20:58:22.535Z,13.40
2018-11-12T21:00:50.341Z,14.10
2018-11-12T21:03:19.232Z,13.88
2018-11-12T21:05:46.854Z,13.78
2018-11-12T21:08:14.236Z,13.10
2018-11-12T21:10:41.408Z,13.30
2018-11-12T21:13:09.225Z,13.28
2018-11-12T21:15:36.572Z,12.40
2018-11-12T21:18:04.313Z,12.90
2018-11-12T21:20:31.559Z,12.90
2018-11-12T21:22:58.955Z,12.23
2018-11-12T21:25:26.957Z,13.40
2018-11-12T21:27:54.752Z,11.57
2018-11-12T21:30:24.198Z,12.23
2018-11-12T21:32:52.120Z,11.85
2018-11-12T21:35:19.648Z,10.98
2018-11-12T21:37:48.099Z,12.60
2018-11-12T21:40:18.448Z,11.00
2018-11-12T21:42:46.080Z,10.70
2018-11-12T21:45:14.984Z,10.80
2018-11-12T21:47:43.014Z,10.13
2018-11-12T21:50:13.035Z,10.48
2018-11-12T21:52:40.178Z,9.48
2018-11-12T21:57:45.834Z,10.63
2018-11-12T22:00:17.667Z,9.63
2018-11-12T22:02:46.904Z,10.00
2018-11-12T22:05:14.765Z,9.13
2018-11-12T22:07:42.829Z,8.65
2018-11-12T22:10:12.000Z,9.18
2018-11-12T22:12:39.938Z,8.98
2018-11-12T22:15:07.761Z,9.63
2018-11-12T22:17:35.302Z,8.33
2018-11-12T22:20:04.382Z,8.53
2018-11-12T22:22:32.327Z,8.50
2018-11-12T22:24:59.782Z,8.20
2018-11-12T22:27:27.450Z,9.25
2018-11-12T22:29:55.695Z,8.28
2018-11-12T22:32:23.034Z,8.38
2018-11-12T22:34:50.552Z,7.90
2018-11-12T22:37:17.854Z,8.48
2018-11-12T22:39:45.327Z,8.53
2018-11-12T22:42:12.882Z,8.93
2018-11-12T22:44:40.239Z,8.23
2018-11-12T22:47:07.834Z,8.23
2018-11-12T22:49:35.133Z,9.25
2018-11-12T22:52:02.803Z,8.98
2018-11-12T22:54:31.708Z,8.80
2018-11-12T22:56:59.230Z,8.93
2018-11-12T22:59:26.677Z,9.13
2018-11-12T23:01:54.064Z,8.50
2018-11-12T23:04:22.776Z,7.97
2018-11-12T23:06:52.022Z,8.48
2018-11-12T23:09:20.108Z,8.90
2018-11-12T23:11:51.627Z,7.72
2018-11-12T23:14:22.658Z,8.58
2018-11-12T23:16:51.944Z,8.80
2018-11-12T23:19:20.898Z,8.20
2018-11-12T23:21:49.645Z,9.03
2018-11-12T23:24:18.366Z,8.18
2018-11-12T23:26:46.051Z,8.33
2018-11-12T23:29:14.213Z,7.78
2018-11-12T23:31:43.756Z,8.48
2018-11-12T23:34:16.035Z,8.10
2018-11-12T23:36:45.947Z,8.08
2018-11-12T23:39:15.527Z,9.00
2018-11-12T23:41:44.623Z,8.60
2018-11-12T23:44:14.294Z,7.53
2018-11-12T23:46:46.558Z,8.60
2018-11-12T23:49:14.125Z,8.13
2018-11-12T23:51:42.880Z,8.10
2018-11-12T23:54:12.343Z,8.20
2018-11-12T23:56:40.742Z,7.97
2018-11-12T23:59:11.113Z,8.58
